sensor_id;sensor_type;location;lat;lon;timestamp;P1;durP1;ratioP1;P2;durP2;ratioP2
40675;SDS011;26359;48.750;9.314;2022-08-19T00:01:37;17.85;;;16.23;;
40675;SDS011;26359;48.750;9.314;2022-08-19T00:04:05;16.23;;;14.73;;
40675;SDS011;26359;48.750;9.314;2022-08-19T00:06:33;18.38;;;16.63;;
40675;SDS011;26359;48.750;9.314;2022-08-19T00:09:00;16.80;;;15.13;;
40675;SDS011;26359;48.750;9.314;2022-08-19T00:11:28;18.35;;;16.65;;
40675;SDS011;26359;48.750;9.314;2022-08-19T00:13:55;16.95;;;15.30;;
40675;SDS011;26359;48.750;9.314;2022-08-19T00:16:21;16.58;;;14.85;;
40675;SDS011;26359;48.750;9.314;2022-08-19T00:18:48;17.17;;;15.57;;
40675;SDS011;26359;48.750;9.314;2022-08-19T00:21:13;17.67;;;15.98;;
40675;SDS011;26359;48.750;9.314;2022-08-19T00:23:39;17.83;;;16.33;;
40675;SDS011;26359;48.750;9.314;2022-08-19T00:26:05;20.45;;;18.45;;
40675;SDS011;26359;48.750;9.314;2022-08-19T00:28:32;17.50;;;15.90;;
40675;SDS011;26359;48.750;9.314;2022-08-19T00:31:00;18.55;;;16.63;;
40675;SDS011;26359;48.750;9.314;2022-08-19T00:33:28;19.02;;;17.13;;
40675;SDS011;26359;48.750;9.314;2022-08-19T00:35:57;18.52;;;16.90;;
40675;SDS011;26359;48.750;9.314;2022-08-19T00:38:23;20.05;;;18.25;;
40675;SDS011;26359;48.750;9.314;2022-08-19T00:40:49;18.20;;;16.30;;
40675;SDS011;26359;48.750;9.314;2022-08-19T00:43:18;20.33;;;18.15;;
40675;SDS011;26359;48.750;9.314;2022-08-19T00:45:45;19.42;;;17.73;;
40675;SDS011;26359;48.750;9.314;2022-08-19T00:48:10;21.98;;;20.02;;
40675;SDS011;26359;48.750;9.314;2022-08-19T00:50:36;19.63;;;17.65;;
40675;SDS011;26359;48.750;9.314;2022-08-19T00:53:05;21.70;;;19.75;;
40675;SDS011;26359;48.750;9.314;2022-08-19T00:55:31;20.92;;;18.83;;
40675;SDS011;26359;48.750;9.314;2022-08-19T00:57:59;20.02;;;18.23;;
40675;SDS011;26359;48.750;9.314;2022-08-19T01:00:30;18.85;;;17.05;;
40675;SDS011;26359;48.750;9.314;2022-08-19T01:02:56;17.83;;;15.93;;
40675;SDS011;26359;48.750;9.314;2022-08-19T01:05:23;18.98;;;17.27;;
40675;SDS011;26359;48.750;9.314;2022-08-19T01:07:52;19.33;;;17.42;;
40675;SDS011;26359;48.750;9.314;2022-08-19T01:10:19;18.92;;;16.70;;
40675;SDS011;26359;48.750;9.314;2022-08-19T01:12:48;20.17;;;18.42;;
40675;SDS011;26359;48.750;9.314;2022-08-19T01:15:16;17.38;;;15.68;;
40675;SDS011;26359;48.750;9.314;2022-08-19T01:17:46;20.52;;;18.42;;
40675;SDS011;26359;48.750;9.314;2022-08-19T01:20:13;17.65;;;15.85;;
40675;SDS011;26359;48.750;9.314;2022-08-19T01:25:08;17.52;;;15.82;;
40675;SDS011;26359;48.750;9.314;2022-08-19T01:27:38;20.05;;;18.10;;
40675;SDS011;26359;48.750;9.314;2022-08-19T01:30:06;18.20;;;16.30;;
40675;SDS011;26359;48.750;9.314;2022-08-19T01:32:32;17.77;;;15.98;;
40675;SDS011;26359;48.750;9.314;2022-08-19T01:34:58;19.08;;;17.15;;
40675;SDS011;26359;48.750;9.314;2022-08-19T01:37:26;18.20;;;16.40;;
40675;SDS011;26359;48.750;9.314;2022-08-19T01:39:51;18.10;;;16.27;;
40675;SDS011;26359;48.750;9.314;2022-08-19T01:42:18;18.02;;;16.27;;
40675;SDS011;26359;48.750;9.314;2022-08-19T01:44:44;18.98;;;17.15;;
40675;SDS011;26359;48.750;9.314;2022-08-19T01:47:10;18.17;;;16.40;;
40675;SDS011;26359;48.750;9.314;2022-08-19T01:49:36;17.98;;;16.17;;
40675;SDS011;26359;48.750;9.314;2022-08-19T01:52:03;17.48;;;15.68;;
40675;SDS011;26359;48.750;9.314;2022-08-19T01:54:30;17.92;;;16.17;;
40675;SDS011;26359;48.750;9.314;2022-08-19T01:56:58;16.52;;;14.93;;
40675;SDS011;26359;48.750;9.314;2022-08-19T01:59:28;17.20;;;15.40;;
40675;SDS011;26359;48.750;9.314;2022-08-19T02:01:55;18.30;;;16.48;;
40675;SDS011;26359;48.750;9.314;2022-08-19T02:04:20;17.50;;;15.73;;
40675;SDS011;26359;48.750;9.314;2022-08-19T02:06:46;19.85;;;17.85;;
40675;SDS011;26359;48.750;9.314;2022-08-19T02:09:13;20.02;;;17.92;;
40675;SDS011;26359;48.750;9.314;2022-08-19T02:11:38;19.45;;;17.55;;
40675;SDS011;26359;48.750;9.314;2022-08-19T02:14:05;18.55;;;16.65;;
40675;SDS011;26359;48.750;9.314;2022-08-19T02:16:31;18.48;;;16.67;;
40675;SDS011;26359;48.750;9.314;2022-08-19T02:18:57;17.95;;;16.15;;
40675;SDS011;26359;48.750;9.314;2022-08-19T02:21:26;18.77;;;16.92;;
40675;SDS011;26359;48.750;9.314;2022-08-19T02:23:53;18.17;;;16.33;;
40675;SDS011;26359;48.750;9.314;2022-08-19T02:26:18;19.13;;;17.25;;
40675;SDS011;26359;48.750;9.314;2022-08-19T02:28:44;20.02;;;17.90;;
40675;SDS011;26359;48.750;9.314;2022-08-19T02:31:11;20.13;;;18.10;;
40675;SDS011;26359;48.750;9.314;2022-08-19T02:33:42;21.55;;;19.30;;
40675;SDS011;26359;48.750;9.314;2022-08-19T02:36:09;20.33;;;18.33;;
40675;SDS011;26359;48.750;9.314;2022-08-19T02:38:36;21.08;;;18.88;;
40675;SDS011;26359;48.750;9.314;2022-08-19T02:41:05;21.15;;;18.98;;
40675;SDS011;26359;48.750;9.314;2022-08-19T02:43:38;24.73;;;22.33;;
40675;SDS011;26359;48.750;9.314;2022-08-19T02:46:18;32.78;;;29.88;;
40675;SDS011;26359;48.750;9.314;2022-08-19T02:48:53;23.50;;;21.27;;
40675;SDS011;26359;48.750;9.314;2022-08-19T02:51:22;22.90;;;20.67;;
40675;SDS011;26359;48.750;9.314;2022-08-19T02:53:50;24.58;;;21.60;;
40675;SDS011;26359;48.750;9.314;2022-08-19T02:56:16;22.95;;;20.65;;
40675;SDS011;26359;48.750;9.314;2022-08-19T02:58:42;24.25;;;21.50;;
40675;SDS011;26359;48.750;9.314;2022-08-19T03:01:08;23.60;;;21.20;;
40675;SDS011;26359;48.750;9.314;2022-08-19T03:03:35;26.90;;;24.35;;
40675;SDS011;26359;48.750;9.314;2022-08-19T03:06:08;27.42;;;24.85;;
40675;SDS011;26359;48.750;9.314;2022-08-19T03:08:37;25.40;;;22.73;;
40675;SDS011;26359;48.750;9.314;2022-08-19T03:11:14;24.42;;;21.95;;
40675;SDS011;26359;48.750;9.314;2022-08-19T03:13:42;23.67;;;21.08;;
40675;SDS011;26359;48.750;9.314;2022-08-19T03:16:08;25.58;;;22.95;;
40675;SDS011;26359;48.750;9.314;2022-08-19T03:18:35;27.08;;;24.40;;
40675;SDS011;26359;48.750;9.314;2022-08-19T03:21:00;27.08;;;24.38;;
40675;SDS011;26359;48.750;9.314;2022-08-19T03:23:26;26.30;;;23.77;;
40675;SDS011;26359;48.750;9.314;2022-08-19T03:25:52;28.23;;;25.33;;
40675;SDS011;26359;48.750;9.314;2022-08-19T03:28:18;27.95;;;25.15;;
40675;SDS011;26359;48.750;9.314;2022-08-19T03:30:56;24.52;;;22.08;;
40675;SDS011;26359;48.750;9.314;2022-08-19T03:33:23;24.75;;;22.08;;
40675;SDS011;26359;48.750;9.314;2022-08-19T03:36:05;24.20;;;21.35;;
40675;SDS011;26359;48.750;9.314;2022-08-19T03:38:38;23.75;;;21.17;;
40675;SDS011;26359;48.750;9.314;2022-08-19T03:41:07;23.85;;;21.42;;
40675;SDS011;26359;48.750;9.314;2022-08-19T03:43:36;23.65;;;20.95;;
40675;SDS011;26359;48.750;9.314;2022-08-19T03:46:04;26.02;;;21.70;;
40675;SDS011;26359;48.750;9.314;2022-08-19T03:48:32;26.50;;;20.83;;
40675;SDS011;26359;48.750;9.314;2022-08-19T03:50:58;26.50;;;23.73;;
40675;SDS011;26359;48.750;9.314;2022-08-19T03:53:25;27.73;;;24.90;;
40675;SDS011;26359;48.750;9.314;2022-08-19T03:55:52;25.60;;;22.85;;
40675;SDS011;26359;48.750;9.314;2022-08-19T03:58:18;27.98;;;23.58;;
40675;SDS011;26359;48.750;9.314;2022-08-19T04:00:44;25.55;;;22.95;;
40675;SDS011;26359;48.750;9.314;2022-08-19T04:03:10;26.63;;;23.80;;
40675;SDS011;26359;48.750;9.314;2022-08-19T04:05:35;25.77;;;22.77;;
40675;SDS011;26359;48.750;9.314;2022-08-19T04:08:03;25.88;;;23.15;;
40675;SDS011;26359;48.750;9.314;2022-08-19T04:10:30;24.83;;;22.25;;
40675;SDS011;26359;48.750;9.314;2022-08-19T04:13:00;26.13;;;22.38;;
40675;SDS011;26359;48.750;9.314;2022-08-19T04:15:25;24.85;;;22.25;;
40675;SDS011;26359;48.750;9.314;2022-08-19T04:17:52;24.55;;;21.83;;
40675;SDS011;26359;48.750;9.314;2022-08-19T04:20:18;24.83;;;22.25;;
40675;SDS011;26359;48.750;9.314;2022-08-19T04:22:43;24.88;;;22.25;;
40675;SDS011;26359;48.750;9.314;2022-08-19T04:25:09;25.30;;;22.58;;
40675;SDS011;26359;48.750;9.314;2022-08-19T04:27:35;25.90;;;23.17;;
40675;SDS011;26359;48.750;9.314;2022-08-19T04:30:00;25.88;;;23.05;;
40675;SDS011;26359;48.750;9.314;2022-08-19T04:32:26;28.85;;;23.55;;
40675;SDS011;26359;48.750;9.314;2022-08-19T04:34:52;27.08;;;23.83;;
40675;SDS011;26359;48.750;9.314;2022-08-19T04:37:21;28.30;;;23.77;;
40675;SDS011;26359;48.750;9.314;2022-08-19T04:39:48;25.77;;;23.02;;
40675;SDS011;26359;48.750;9.314;2022-08-19T04:42:32;24.90;;;22.10;;
40675;SDS011;26359;48.750;9.314;2022-08-19T04:45:08;27.83;;;23.73;;
40675;SDS011;26359;48.750;9.314;2022-08-19T04:47:36;25.38;;;22.70;;
40675;SDS011;26359;48.750;9.314;2022-08-19T04:50:03;25.40;;;22.45;;
40675;SDS011;26359;48.750;9.314;2022-08-19T04:52:29;26.20;;;23.50;;
40675;SDS011;26359;48.750;9.314;2022-08-19T04:54:56;26.77;;;23.88;;
40675;SDS011;26359;48.750;9.314;2022-08-19T04:57:22;29.77;;;26.70;;
40675;SDS011;26359;48.750;9.314;2022-08-19T04:59:48;30.02;;;26.88;;
40675;SDS011;26359;48.750;9.314;2022-08-19T05:02:14;31.45;;;28.33;;
40675;SDS011;26359;48.750;9.314;2022-08-19T05:04:40;31.25;;;28.13;;
40675;SDS011;26359;48.750;9.314;2022-08-19T05:07:06;31.65;;;28.38;;
40675;SDS011;26359;48.750;9.314;2022-08-19T05:09:32;33.78;;;30.40;;
40675;SDS011;26359;48.750;9.314;2022-08-19T05:11:59;34.72;;;31.40;;
40675;SDS011;26359;48.750;9.314;2022-08-19T05:14:25;31.92;;;28.83;;
40675;SDS011;26359;48.750;9.314;2022-08-19T05:16:50;33.80;;;30.48;;
40675;SDS011;26359;48.750;9.314;2022-08-19T05:19:16;32.33;;;29.10;;
40675;SDS011;26359;48.750;9.314;2022-08-19T05:22:00;30.05;;;27.13;;
40675;SDS011;26359;48.750;9.314;2022-08-19T05:24:44;33.30;;;30.20;;
40675;SDS011;26359;48.750;9.314;2022-08-19T05:27:10;29.90;;;27.17;;
40675;SDS011;26359;48.750;9.314;2022-08-19T05:29:35;32.50;;;29.30;;
40675;SDS011;26359;48.750;9.314;2022-08-19T05:32:02;29.88;;;26.77;;
40675;SDS011;26359;48.750;9.314;2022-08-19T05:34:30;32.22;;;29.15;;
40675;SDS011;26359;48.750;9.314;2022-08-19T05:36:56;32.63;;;29.58;;
40675;SDS011;26359;48.750;9.314;2022-08-19T05:39:25;32.78;;;29.55;;
40675;SDS011;26359;48.750;9.314;2022-08-19T05:41:54;30.33;;;27.33;;
40675;SDS011;26359;48.750;9.314;2022-08-19T05:44:23;31.80;;;28.58;;
40675;SDS011;26359;48.750;9.314;2022-08-19T05:46:50;32.28;;;29.15;;
40675;SDS011;26359;48.750;9.314;2022-08-19T05:49:18;31.38;;;28.38;;
40675;SDS011;26359;48.750;9.314;2022-08-19T05:51:45;30.70;;;27.33;;
40675;SDS011;26359;48.750;9.314;2022-08-19T05:54:10;32.05;;;29.05;;
40675;SDS011;26359;48.750;9.314;2022-08-19T05:56:38;32.08;;;29.08;;
40675;SDS011;26359;48.750;9.314;2022-08-19T05:59:05;31.98;;;28.42;;
40675;SDS011;26359;48.750;9.314;2022-08-19T06:01:35;29.80;;;26.75;;
40675;SDS011;26359;48.750;9.314;2022-08-19T06:04:04;29.00;;;26.00;;
40675;SDS011;26359;48.750;9.314;2022-08-19T06:06:31;28.23;;;25.38;;
40675;SDS011;26359;48.750;9.314;2022-08-19T06:08:59;29.70;;;26.52;;
40675;SDS011;26359;48.750;9.314;2022-08-19T06:11:39;28.85;;;25.73;;
40675;SDS011;26359;48.750;9.314;2022-08-19T06:14:09;28.45;;;25.25;;
40675;SDS011;26359;48.750;9.314;2022-08-19T06:16:40;28.60;;;25.50;;
40675;SDS011;26359;48.750;9.314;2022-08-19T06:19:09;28.48;;;25.58;;
40675;SDS011;26359;48.750;9.314;2022-08-19T06:21:38;27.33;;;24.63;;
40675;SDS011;26359;48.750;9.314;2022-08-19T06:24:05;27.20;;;23.92;;
40675;SDS011;26359;48.750;9.314;2022-08-19T06:26:34;28.38;;;25.50;;
40675;SDS011;26359;48.750;9.314;2022-08-19T06:29:00;28.45;;;25.52;;
40675;SDS011;26359;48.750;9.314;2022-08-19T06:31:28;28.00;;;25.00;;
40675;SDS011;26359;48.750;9.314;2022-08-19T06:33:54;29.77;;;26.85;;
40675;SDS011;26359;48.750;9.314;2022-08-19T06:36:24;29.10;;;26.15;;
40675;SDS011;26359;48.750;9.314;2022-08-19T06:38:59;30.92;;;27.95;;
40675;SDS011;26359;48.750;9.314;2022-08-19T06:41:27;30.40;;;27.40;;
40675;SDS011;26359;48.750;9.314;2022-08-19T06:43:53;27.77;;;24.88;;
40675;SDS011;26359;48.750;9.314;2022-08-19T06:46:19;26.45;;;23.75;;
40675;SDS011;26359;48.750;9.314;2022-08-19T06:48:45;26.02;;;23.40;;
40675;SDS011;26359;48.750;9.314;2022-08-19T06:51:12;27.33;;;24.38;;
40675;SDS011;26359;48.750;9.314;2022-08-19T06:53:40;25.80;;;23.10;;
40675;SDS011;26359;48.750;9.314;2022-08-19T06:56:12;26.25;;;23.45;;
40675;SDS011;26359;48.750;9.314;2022-08-19T06:58:38;26.75;;;23.88;;
40675;SDS011;26359;48.750;9.314;2022-08-19T07:01:04;29.02;;;25.80;;
40675;SDS011;26359;48.750;9.314;2022-08-19T07:03:33;26.23;;;23.50;;
40675;SDS011;26359;48.750;9.314;2022-08-19T07:06:07;28.27;;;24.17;;
40675;SDS011;26359;48.750;9.314;2022-08-19T07:08:35;27.10;;;24.27;;
40675;SDS011;26359;48.750;9.314;2022-08-19T07:11:05;28.92;;;25.83;;
40675;SDS011;26359;48.750;9.314;2022-08-19T07:13:35;26.58;;;23.77;;
40675;SDS011;26359;48.750;9.314;2022-08-19T07:16:03;27.10;;;24.15;;
40675;SDS011;26359;48.750;9.314;2022-08-19T07:18:30;27.90;;;24.60;;
40675;SDS011;26359;48.750;9.314;2022-08-19T07:23:49;26.48;;;23.60;;
40675;SDS011;26359;48.750;9.314;2022-08-19T07:26:27;26.73;;;23.90;;
40675;SDS011;26359;48.750;9.314;2022-08-19T07:28:55;26.30;;;23.50;;
40675;SDS011;26359;48.750;9.314;2022-08-19T07:31:23;27.27;;;24.38;;
40675;SDS011;26359;48.750;9.314;2022-08-19T07:33:50;24.83;;;22.25;;
40675;SDS011;26359;48.750;9.314;2022-08-19T07:36:19;25.67;;;23.00;;
40675;SDS011;26359;48.750;9.314;2022-08-19T07:38:48;25.38;;;22.83;;
40675;SDS011;26359;48.750;9.314;2022-08-19T07:41:17;25.30;;;22.60;;
40675;SDS011;26359;48.750;9.314;2022-08-19T07:43:45;24.17;;;21.67;;
40675;SDS011;26359;48.750;9.314;2022-08-19T07:46:12;23.05;;;20.70;;
40675;SDS011;26359;48.750;9.314;2022-08-19T07:48:38;25.05;;;22.45;;
40675;SDS011;26359;48.750;9.314;2022-08-19T07:51:07;23.80;;;21.48;;
40675;SDS011;26359;48.750;9.314;2022-08-19T07:53:35;24.25;;;21.77;;
40675;SDS011;26359;48.750;9.314;2022-08-19T07:56:01;24.48;;;21.98;;
40675;SDS011;26359;48.750;9.314;2022-08-19T07:58:33;23.45;;;21.15;;
40675;SDS011;26359;48.750;9.314;2022-08-19T08:01:02;26.70;;;22.70;;
40675;SDS011;26359;48.750;9.314;2022-08-19T08:03:29;24.77;;;21.20;;
40675;SDS011;26359;48.750;9.314;2022-08-19T08:06:14;22.70;;;20.40;;
40675;SDS011;26359;48.750;9.314;2022-08-19T08:09:00;24.85;;;22.25;;
40675;SDS011;26359;48.750;9.314;2022-08-19T08:11:41;23.20;;;20.83;;
40675;SDS011;26359;48.750;9.314;2022-08-19T08:14:14;24.25;;;21.67;;
40675;SDS011;26359;48.750;9.314;2022-08-19T08:16:48;23.58;;;21.08;;
40675;SDS011;26359;48.750;9.314;2022-08-19T08:19:15;23.73;;;21.17;;
40675;SDS011;26359;48.750;9.314;2022-08-19T08:21:42;21.80;;;19.63;;
40675;SDS011;26359;48.750;9.314;2022-08-19T08:24:08;22.48;;;20.20;;
40675;SDS011;26359;48.750;9.314;2022-08-19T08:26:34;22.73;;;20.42;;
40675;SDS011;26359;48.750;9.314;2022-08-19T08:28:59;22.20;;;19.92;;
40675;SDS011;26359;48.750;9.314;2022-08-19T08:31:25;22.10;;;19.80;;
40675;SDS011;26359;48.750;9.314;2022-08-19T08:33:50;23.23;;;20.92;;
40675;SDS011;26359;48.750;9.314;2022-08-19T08:36:16;22.80;;;20.40;;
40675;SDS011;26359;48.750;9.314;2022-08-19T08:38:42;22.02;;;19.83;;
40675;SDS011;26359;48.750;9.314;2022-08-19T08:41:15;21.88;;;19.65;;
40675;SDS011;26359;48.750;9.314;2022-08-19T08:43:44;21.80;;;19.60;;
40675;SDS011;26359;48.750;9.314;2022-08-19T08:46:13;21.50;;;19.30;;
40675;SDS011;26359;48.750;9.314;2022-08-19T08:51:34;20.92;;;18.85;;
40675;SDS011;26359;48.750;9.314;2022-08-19T08:54:07;21.45;;;19.23;;
40675;SDS011;26359;48.750;9.314;2022-08-19T08:56:37;22.00;;;19.75;;
40675;SDS011;26359;48.750;9.314;2022-08-19T08:59:05;22.65;;;20.33;;
40675;SDS011;26359;48.750;9.314;2022-08-19T09:01:35;20.75;;;18.83;;
40675;SDS011;26359;48.750;9.314;2022-08-19T09:04:05;21.90;;;19.23;;
40675;SDS011;26359;48.750;9.314;2022-08-19T09:06:36;19.92;;;17.83;;
40675;SDS011;26359;48.750;9.314;2022-08-19T09:09:30;20.67;;;18.58;;
40675;SDS011;26359;48.750;9.314;2022-08-19T09:17:23;20.85;;;18.85;;
40675;SDS011;26359;48.750;9.314;2022-08-19T09:22:31;19.50;;;17.55;;
40675;SDS011;26359;48.750;9.314;2022-08-19T09:24:57;20.65;;;18.25;;
40675;SDS011;26359;48.750;9.314;2022-08-19T09:27:24;19.10;;;17.30;;
40675;SDS011;26359;48.750;9.314;2022-08-19T09:29:52;19.85;;;17.75;;
40675;SDS011;26359;48.750;9.314;2022-08-19T09:32:18;20.23;;;18.13;;
40675;SDS011;26359;48.750;9.314;2022-08-19T09:34:45;21.60;;;19.50;;
40675;SDS011;26359;48.750;9.314;2022-08-19T09:37:11;20.27;;;18.27;;
40675;SDS011;26359;48.750;9.314;2022-08-19T09:39:37;20.38;;;18.23;;
40675;SDS011;26359;48.750;9.314;2022-08-19T09:42:05;21.50;;;17.88;;
40675;SDS011;26359;48.750;9.314;2022-08-19T09:44:36;20.98;;;18.98;;
40675;SDS011;26359;48.750;9.314;2022-08-19T09:47:02;18.80;;;16.95;;
40675;SDS011;26359;48.750;9.314;2022-08-19T09:49:28;19.17;;;17.17;;
40675;SDS011;26359;48.750;9.314;2022-08-19T09:51:54;19.77;;;17.77;;
40675;SDS011;26359;48.750;9.314;2022-08-19T09:54:20;20.75;;;18.65;;
40675;SDS011;26359;48.750;9.314;2022-08-19T09:56:47;18.88;;;17.00;;
40675;SDS011;26359;48.750;9.314;2022-08-19T09:59:12;19.02;;;17.05;;
40675;SDS011;26359;48.750;9.314;2022-08-19T10:01:38;19.35;;;17.48;;
40675;SDS011;26359;48.750;9.314;2022-08-19T10:04:04;18.48;;;16.75;;
40675;SDS011;26359;48.750;9.314;2022-08-19T10:06:33;20.17;;;17.98;;
40675;SDS011;26359;48.750;9.314;2022-08-19T10:09:00;19.30;;;17.42;;
40675;SDS011;26359;48.750;9.314;2022-08-19T10:11:28;19.20;;;17.30;;
40675;SDS011;26359;48.750;9.314;2022-08-19T10:13:54;19.35;;;17.45;;
40675;SDS011;26359;48.750;9.314;2022-08-19T10:16:21;20.02;;;18.02;;
40675;SDS011;26359;48.750;9.314;2022-08-19T10:18:49;19.77;;;17.98;;
40675;SDS011;26359;48.750;9.314;2022-08-19T10:21:22;20.20;;;18.20;;
40675;SDS011;26359;48.750;9.314;2022-08-19T10:23:54;20.40;;;18.15;;
40675;SDS011;26359;48.750;9.314;2022-08-19T10:26:24;19.67;;;17.67;;
40675;SDS011;26359;48.750;9.314;2022-08-19T10:28:51;18.17;;;16.38;;
40675;SDS011;26359;48.750;9.314;2022-08-19T10:31:21;18.88;;;17.05;;
40675;SDS011;26359;48.750;9.314;2022-08-19T10:33:55;19.98;;;17.98;;
40675;SDS011;26359;48.750;9.314;2022-08-19T10:36:32;18.15;;;16.35;;
40675;SDS011;26359;48.750;9.314;2022-08-19T10:39:01;19.30;;;17.50;;
40675;SDS011;26359;48.750;9.314;2022-08-19T10:41:35;18.27;;;16.38;;
40675;SDS011;26359;48.750;9.314;2022-08-19T10:44:04;19.10;;;17.15;;
40675;SDS011;26359;48.750;9.314;2022-08-19T10:46:36;18.20;;;16.50;;
40675;SDS011;26359;48.750;9.314;2022-08-19T10:49:06;16.70;;;15.00;;
40675;SDS011;26359;48.750;9.314;2022-08-19T10:51:33;18.35;;;16.65;;
40675;SDS011;26359;48.750;9.314;2022-08-19T10:54:18;19.08;;;17.17;;
40675;SDS011;26359;48.750;9.314;2022-08-19T10:56:43;19.20;;;17.35;;
40675;SDS011;26359;48.750;9.314;2022-08-19T10:59:25;19.30;;;17.30;;
40675;SDS011;26359;48.750;9.314;2022-08-19T11:01:52;18.30;;;16.55;;
40675;SDS011;26359;48.750;9.314;2022-08-19T11:04:23;18.70;;;16.80;;
40675;SDS011;26359;48.750;9.314;2022-08-19T11:06:49;19.23;;;17.33;;
40675;SDS011;26359;48.750;9.314;2022-08-19T11:09:15;19.13;;;17.23;;
40675;SDS011;26359;48.750;9.314;2022-08-19T11:11:45;20.45;;;18.35;;
40675;SDS011;26359;48.750;9.314;2022-08-19T11:14:14;20.60;;;18.42;;
40675;SDS011;26359;48.750;9.314;2022-08-19T11:16:45;20.63;;;18.52;;
40675;SDS011;26359;48.750;9.314;2022-08-19T11:19:11;21.02;;;19.02;;
40675;SDS011;26359;48.750;9.314;2022-08-19T11:21:40;20.40;;;18.40;;
40675;SDS011;26359;48.750;9.314;2022-08-19T11:24:08;20.42;;;18.42;;
40675;SDS011;26359;48.750;9.314;2022-08-19T11:26:40;20.52;;;18.63;;
40675;SDS011;26359;48.750;9.314;2022-08-19T11:29:07;22.05;;;19.85;;
40675;SDS011;26359;48.750;9.314;2022-08-19T11:31:38;20.67;;;18.67;;
40675;SDS011;26359;48.750;9.314;2022-08-19T11:34:06;19.95;;;18.05;;
40675;SDS011;26359;48.750;9.314;2022-08-19T11:36:33;20.67;;;18.63;;
40675;SDS011;26359;48.750;9.314;2022-08-19T11:39:02;19.60;;;17.70;;
40675;SDS011;26359;48.750;9.314;2022-08-19T11:41:29;19.63;;;17.80;;
40675;SDS011;26359;48.750;9.314;2022-08-19T11:43:54;20.10;;;18.05;;
40675;SDS011;26359;48.750;9.314;2022-08-19T11:46:21;19.55;;;17.55;;
40675;SDS011;26359;48.750;9.314;2022-08-19T11:48:49;20.27;;;18.38;;
40675;SDS011;26359;48.750;9.314;2022-08-19T11:51:16;20.83;;;18.73;;
40675;SDS011;26359;48.750;9.314;2022-08-19T11:53:44;20.52;;;18.63;;
40675;SDS011;26359;48.750;9.314;2022-08-19T11:56:10;20.70;;;18.85;;
40675;SDS011;26359;48.750;9.314;2022-08-19T11:58:36;20.48;;;18.27;;
40675;SDS011;26359;48.750;9.314;2022-08-19T12:01:05;20.92;;;18.83;;
40675;SDS011;26359;48.750;9.314;2022-08-19T12:03:34;21.73;;;19.50;;
40675;SDS011;26359;48.750;9.314;2022-08-19T12:06:07;21.40;;;19.25;;
40675;SDS011;26359;48.750;9.314;2022-08-19T12:08:34;20.95;;;18.85;;
40675;SDS011;26359;48.750;9.314;2022-08-19T12:11:00;21.08;;;19.08;;
40675;SDS011;26359;48.750;9.314;2022-08-19T12:13:27;21.90;;;19.58;;
40675;SDS011;26359;48.750;9.314;2022-08-19T12:15:55;20.85;;;18.73;;
40675;SDS011;26359;48.750;9.314;2022-08-19T12:18:22;21.10;;;19.00;;
40675;SDS011;26359;48.750;9.314;2022-08-19T12:20:49;21.23;;;19.15;;
40675;SDS011;26359;48.750;9.314;2022-08-19T12:23:16;21.02;;;19.02;;
40675;SDS011;26359;48.750;9.314;2022-08-19T12:25:43;21.05;;;18.85;;
40675;SDS011;26359;48.750;9.314;2022-08-19T12:28:22;19.67;;;17.88;;
40675;SDS011;26359;48.750;9.314;2022-08-19T12:30:49;20.92;;;18.85;;
40675;SDS011;26359;48.750;9.314;2022-08-19T12:33:16;20.10;;;18.10;;
40675;SDS011;26359;48.750;9.314;2022-08-19T12:35:43;21.15;;;19.05;;
40675;SDS011;26359;48.750;9.314;2022-08-19T12:38:10;20.42;;;18.48;;
40675;SDS011;26359;48.750;9.314;2022-08-19T12:40:37;19.92;;;17.85;;
40675;SDS011;26359;48.750;9.314;2022-08-19T12:43:04;20.00;;;18.10;;
40675;SDS011;26359;48.750;9.314;2022-08-19T12:45:30;20.85;;;18.75;;
40675;SDS011;26359;48.750;9.314;2022-08-19T12:47:56;20.33;;;18.17;;
40675;SDS011;26359;48.750;9.314;2022-08-19T12:50:21;21.13;;;19.02;;
40675;SDS011;26359;48.750;9.314;2022-08-19T12:52:47;19.42;;;17.58;;
40675;SDS011;26359;48.750;9.314;2022-08-19T12:55:13;19.52;;;17.63;;
40675;SDS011;26359;48.750;9.314;2022-08-19T12:57:39;19.85;;;17.85;;
40675;SDS011;26359;48.750;9.314;2022-08-19T13:02:35;19.48;;;17.48;;
40675;SDS011;26359;48.750;9.314;2022-08-19T13:05:02;20.25;;;18.25;;
40675;SDS011;26359;48.750;9.314;2022-08-19T13:07:28;19.13;;;17.23;;
40675;SDS011;26359;48.750;9.314;2022-08-19T13:09:55;19.20;;;17.33;;
40675;SDS011;26359;48.750;9.314;2022-08-19T13:12:20;18.67;;;16.88;;
40675;SDS011;26359;48.750;9.314;2022-08-19T13:14:46;18.48;;;16.67;;
40675;SDS011;26359;48.750;9.314;2022-08-19T13:17:15;19.75;;;17.85;;
40675;SDS011;26359;48.750;9.314;2022-08-19T13:19:41;19.67;;;17.80;;
40675;SDS011;26359;48.750;9.314;2022-08-19T13:22:06;21.08;;;18.98;;
40675;SDS011;26359;48.750;9.314;2022-08-19T13:24:32;20.73;;;18.77;;
40675;SDS011;26359;48.750;9.314;2022-08-19T13:26:59;19.42;;;17.63;;
40675;SDS011;26359;48.750;9.314;2022-08-19T13:29:25;19.23;;;17.23;;
40675;SDS011;26359;48.750;9.314;2022-08-19T13:32:09;19.95;;;18.13;;
40675;SDS011;26359;48.750;9.314;2022-08-19T13:34:53;21.67;;;19.48;;
40675;SDS011;26359;48.750;9.314;2022-08-19T13:37:19;22.05;;;19.90;;
40675;SDS011;26359;48.750;9.314;2022-08-19T13:40:05;21.57;;;19.53;;
40675;SDS011;26359;48.750;9.314;2022-08-19T13:42:31;20.70;;;18.70;;
40675;SDS011;26359;48.750;9.314;2022-08-19T13:44:57;21.35;;;19.33;;
40675;SDS011;26359;48.750;9.314;2022-08-19T13:47:23;20.70;;;18.73;;
40675;SDS011;26359;48.750;9.314;2022-08-19T13:49:49;20.17;;;18.27;;
40675;SDS011;26359;48.750;9.314;2022-08-19T13:52:15;20.13;;;18.13;;
40675;SDS011;26359;48.750;9.314;2022-08-19T13:54:40;19.58;;;17.67;;
40675;SDS011;26359;48.750;9.314;2022-08-19T13:57:06;21.00;;;19.00;;
40675;SDS011;26359;48.750;9.314;2022-08-19T13:59:31;19.58;;;17.67;;
40675;SDS011;26359;48.750;9.314;2022-08-19T14:01:58;20.33;;;18.23;;
40675;SDS011;26359;48.750;9.314;2022-08-19T14:04:25;20.15;;;18.15;;
40675;SDS011;26359;48.750;9.314;2022-08-19T14:06:51;20.33;;;18.38;;
40675;SDS011;26359;48.750;9.314;2022-08-19T14:09:16;19.50;;;17.65;;
40675;SDS011;26359;48.750;9.314;2022-08-19T14:11:42;19.50;;;17.70;;
40675;SDS011;26359;48.750;9.314;2022-08-19T14:14:10;19.63;;;17.73;;
40675;SDS011;26359;48.750;9.314;2022-08-19T14:16:35;19.67;;;17.77;;
40675;SDS011;26359;48.750;9.314;2022-08-19T14:19:01;19.90;;;18.00;;
40675;SDS011;26359;48.750;9.314;2022-08-19T14:21:27;20.50;;;18.40;;
40675;SDS011;26359;48.750;9.314;2022-08-19T14:23:52;19.90;;;18.00;;
40675;SDS011;26359;48.750;9.314;2022-08-19T14:27:34;21.50;;;17.40;;
40675;SDS011;26359;48.750;9.314;2022-08-19T14:30:01;17.58;;;15.98;;
40675;SDS011;26359;48.750;9.314;2022-08-19T14:32:28;18.90;;;17.15;;
40675;SDS011;26359;48.750;9.314;2022-08-19T14:34:53;19.83;;;17.88;;
40675;SDS011;26359;48.750;9.314;2022-08-19T14:37:19;19.55;;;17.65;;
40675;SDS011;26359;48.750;9.314;2022-08-19T14:39:45;19.70;;;17.80;;
40675;SDS011;26359;48.750;9.314;2022-08-19T14:42:11;20.92;;;18.75;;
40675;SDS011;26359;48.750;9.314;2022-08-19T14:44:39;19.98;;;18.08;;
40675;SDS011;26359;48.750;9.314;2022-08-19T14:47:04;19.23;;;17.33;;